sensor_id;sensor_type;location;lat;lon;timestamp;temperature;humidity
20432;DHT22;10375;49.136;10.366;2022-08-30T00:00:29;14.80;99.90
20432;DHT22;10375;49.136;10.366;2022-08-30T00:07:21;14.80;99.90
20432;DHT22;10375;49.136;10.366;2022-08-30T00:09:48;14.90;99.90
20432;DHT22;10375;49.136;10.366;2022-08-30T00:12:15;14.90;99.90
20432;DHT22;10375;49.136;10.366;2022-08-30T00:18:29;14.80;99.90
20432;DHT22;10375;49.136;10.366;2022-08-30T00:21:30;14.70;99.90
20432;DHT22;10375;49.136;10.366;2022-08-30T00:23:57;14.70;99.90
20432;DHT22;10375;49.136;10.366;2022-08-30T00:26:24;14.70;99.90
20432;DHT22;10375;49.136;10.366;2022-08-30T00:29:16;14.70;99.90
20432;DHT22;10375;49.136;10.366;2022-08-30T00:31:43;14.70;99.90
20432;DHT22;10375;49.136;10.366;2022-08-30T00:34:10;14.70;99.90
20432;DHT22;10375;49.136;10.366;2022-08-30T00:37:06;14.70;99.90
20432;DHT22;10375;49.136;10.366;2022-08-30T00:39:33;14.70;99.90
20432;DHT22;10375;49.136;10.366;2022-08-30T00:42:00;14.60;99.90
20432;DHT22;10375;49.136;10.366;2022-08-30T00:44:49;14.50;99.90
20432;DHT22;10375;49.136;10.366;2022-08-30T00:47:16;14.50;99.90
20432;DHT22;10375;49.136;10.366;2022-08-30T00:49:52;14.50;99.90
20432;DHT22;10375;49.136;10.366;2022-08-30T00:52:24;14.50;99.90
20432;DHT22;10375;49.136;10.366;2022-08-30T00:54:51;14.40;99.90
20432;DHT22;10375;49.136;10.366;2022-08-30T00:57:44;14.30;99.90
20432;DHT22;10375;49.136;10.366;2022-08-30T01:00:15;14.30;99.90
20432;DHT22;10375;49.136;10.366;2022-08-30T01:02:42;14.30;99.90
20432;DHT22;10375;49.136;10.366;2022-08-30T01:05:15;14.30;99.90
20432;DHT22;10375;49.136;10.366;2022-08-30T01:07:43;14.40;99.90
20432;DHT22;10375;49.136;10.366;2022-08-30T01:10:12;14.40;99.90
20432;DHT22;10375;49.136;10.366;2022-08-30T01:15:51;14.40;99.90
20432;DHT22;10375;49.136;10.366;2022-08-30T01:18:22;14.30;99.90
20432;DHT22;10375;49.136;10.366;2022-08-30T01:23:44;14.30;99.90
20432;DHT22;10375;49.136;10.366;2022-08-30T01:26:13;14.30;99.90
20432;DHT22;10375;49.136;10.366;2022-08-30T01:28:52;14.30;99.90
20432;DHT22;10375;49.136;10.366;2022-08-30T01:31:20;14.30;99.90
20432;DHT22;10375;49.136;10.366;2022-08-30T01:33:47;14.30;99.90
20432;DHT22;10375;49.136;10.366;2022-08-30T01:36:36;14.30;99.90
20432;DHT22;10375;49.136;10.366;2022-08-30T01:39:13;14.30;99.90
20432;DHT22;10375;49.136;10.366;2022-08-30T01:41:40;14.20;99.90
20432;DHT22;10375;49.136;10.366;2022-08-30T01:44:28;14.10;99.90
20432;DHT22;10375;49.136;10.366;2022-08-30T01:46:55;14.10;99.90
20432;DHT22;10375;49.136;10.366;2022-08-30T01:49:23;14.10;99.90
20432;DHT22;10375;49.136;10.366;2022-08-30T01:52:23;14.00;99.90
20432;DHT22;10375;49.136;10.366;2022-08-30T01:54:51;14.00;99.90
20432;DHT22;10375;49.136;10.366;2022-08-30T01:57:20;14.00;99.90
20432;DHT22;10375;49.136;10.366;2022-08-30T01:59:48;13.90;99.90
20432;DHT22;10375;49.136;10.366;2022-08-30T02:02:22;13.90;99.90
20432;DHT22;10375;49.136;10.366;2022-08-30T02:05:16;14.00;99.90
20432;DHT22;10375;49.136;10.366;2022-08-30T02:07:43;13.90;99.90
20432;DHT22;10375;49.136;10.366;2022-08-30T02:13:00;13.90;99.90
20432;DHT22;10375;49.136;10.366;2022-08-30T02:15:27;13.90;99.90
20432;DHT22;10375;49.136;10.366;2022-08-30T02:20:47;13.90;99.90
20432;DHT22;10375;49.136;10.366;2022-08-30T02:23:14;13.90;99.90
20432;DHT22;10375;49.136;10.366;2022-08-30T02:28:36;13.90;99.90
20432;DHT22;10375;49.136;10.366;2022-08-30T02:31:16;13.80;99.90
20432;DHT22;10375;49.136;10.366;2022-08-30T02:33:46;13.80;99.90
20432;DHT22;10375;49.136;10.366;2022-08-30T02:36:13;13.70;99.90
20432;DHT22;10375;49.136;10.366;2022-08-30T02:41:34;13.70;99.90
20432;DHT22;10375;49.136;10.366;2022-08-30T02:44:01;13.70;99.90
20432;DHT22;10375;49.136;10.366;2022-08-30T02:46:38;13.70;99.90
20432;DHT22;10375;49.136;10.366;2022-08-30T02:49:06;13.60;99.90
20432;DHT22;10375;49.136;10.366;2022-08-30T02:51:54;13.60;99.90
20432;DHT22;10375;49.136;10.366;2022-08-30T02:54:21;13.60;99.90
20432;DHT22;10375;49.136;10.366;2022-08-30T02:57:18;13.70;99.90
20432;DHT22;10375;49.136;10.366;2022-08-30T02:59:46;13.70;99.90
20432;DHT22;10375;49.136;10.366;2022-08-30T03:02:14;13.70;99.90
20432;DHT22;10375;49.136;10.366;2022-08-30T03:05:06;13.70;99.90
20432;DHT22;10375;49.136;10.366;2022-08-30T03:07:34;13.70;99.90
20432;DHT22;10375;49.136;10.366;2022-08-30T03:10:01;13.80;99.90
20432;DHT22;10375;49.136;10.366;2022-08-30T03:12:54;13.70;99.90
20432;DHT22;10375;49.136;10.366;2022-08-30T03:15:21;13.60;99.90
20432;DHT22;10375;49.136;10.366;2022-08-30T03:17:53;13.60;99.90
20432;DHT22;10375;49.136;10.366;2022-08-30T03:20:40;13.50;99.90
20432;DHT22;10375;49.136;10.366;2022-08-30T03:23:20;13.50;99.90
20432;DHT22;10375;49.136;10.366;2022-08-30T03:25:51;13.40;99.90
20432;DHT22;10375;49.136;10.366;2022-08-30T03:28:19;13.50;99.90
20432;DHT22;10375;49.136;10.366;2022-08-30T03:30:46;13.40;99.90
20432;DHT22;10375;49.136;10.366;2022-08-30T03:33:14;13.50;99.90
20432;DHT22;10375;49.136;10.366;2022-08-30T03:35:44;13.50;99.90
20432;DHT22;10375;49.136;10.366;2022-08-30T03:38:11;13.40;99.90
20432;DHT22;10375;49.136;10.366;2022-08-30T03:43:59;13.40;99.90
20432;DHT22;10375;49.136;10.366;2022-08-30T03:46:27;13.40;99.90
20432;DHT22;10375;49.136;10.366;2022-08-30T03:49:16;13.40;99.90
20432;DHT22;10375;49.136;10.366;2022-08-30T03:51:45;13.30;99.90
20432;DHT22;10375;49.136;10.366;2022-08-30T03:54:13;13.30;99.90
20432;DHT22;10375;49.136;10.366;2022-08-30T03:59:40;13.30;99.90
20432;DHT22;10375;49.136;10.366;2022-08-30T04:02:07;13.20;99.90
20432;DHT22;10375;49.136;10.366;2022-08-30T04:04:51;13.10;99.90
20432;DHT22;10375;49.136;10.366;2022-08-30T04:07:18;13.00;99.90
20432;DHT22;10375;49.136;10.366;2022-08-30T04:09:45;13.00;99.90
20432;DHT22;10375;49.136;10.366;2022-08-30T04:16:01;13.10;99.90
20432;DHT22;10375;49.136;10.366;2022-08-30T04:18:30;13.00;99.90
20432;DHT22;10375;49.136;10.366;2022-08-30T04:20:57;13.10;99.90
20432;DHT22;10375;49.136;10.366;2022-08-30T04:23:24;13.10;99.90
20432;DHT22;10375;49.136;10.366;2022-08-30T04:26:28;13.10;99.90
20432;DHT22;10375;49.136;10.366;2022-08-30T04:28:56;13.10;99.90
20432;DHT22;10375;49.136;10.366;2022-08-30T04:31:24;13.10;99.90
20432;DHT22;10375;49.136;10.366;2022-08-30T04:37:05;13.10;99.90
20432;DHT22;10375;49.136;10.366;2022-08-30T04:39:35;13.10;99.90
20432;DHT22;10375;49.136;10.366;2022-08-30T04:44:59;13.10;99.90
20432;DHT22;10375;49.136;10.366;2022-08-30T04:47:27;13.10;99.90
20432;DHT22;10375;49.136;10.366;2022-08-30T04:50:02;13.20;99.90
20432;DHT22;10375;49.136;10.366;2022-08-30T04:52:30;13.30;99.90
20432;DHT22;10375;49.136;10.366;2022-08-30T04:54:58;13.40;99.90
20432;DHT22;10375;49.136;10.366;2022-08-30T04:57:26;13.50;99.90
20432;DHT22;10375;49.136;10.366;2022-08-30T04:59:54;13.60;99.90
20432;DHT22;10375;49.136;10.366;2022-08-30T05:02:21;13.60;99.90
20432;DHT22;10375;49.136;10.366;2022-08-30T05:08:07;13.70;99.90
20432;DHT22;10375;49.136;10.366;2022-08-30T05:10:43;13.70;99.90
20432;DHT22;10375;49.136;10.366;2022-08-30T05:13:10;13.60;99.90
20432;DHT22;10375;49.136;10.366;2022-08-30T05:15:38;13.70;99.90
20432;DHT22;10375;49.136;10.366;2022-08-30T05:18:07;13.80;99.90
20432;DHT22;10375;49.136;10.366;2022-08-30T05:20:41;13.90;99.90
20432;DHT22;10375;49.136;10.366;2022-08-30T05:23:14;14.00;99.90
20432;DHT22;10375;49.136;10.366;2022-08-30T05:25:42;14.10;99.90
20432;DHT22;10375;49.136;10.366;2022-08-30T05:28:09;14.40;99.90
20432;DHT22;10375;49.136;10.366;2022-08-30T05:30:36;14.60;99.90
20432;DHT22;10375;49.136;10.366;2022-08-30T05:33:04;14.80;99.90
20432;DHT22;10375;49.136;10.366;2022-08-30T05:35:31;15.00;99.90
20432;DHT22;10375;49.136;10.366;2022-08-30T05:38:21;15.20;99.90
20432;DHT22;10375;49.136;10.366;2022-08-30T05:40:48;15.40;99.90
20432;DHT22;10375;49.136;10.366;2022-08-30T05:43:17;15.60;99.90
20432;DHT22;10375;49.136;10.366;2022-08-30T05:46:05;15.70;99.90
20432;DHT22;10375;49.136;10.366;2022-08-30T05:48:33;15.90;99.90
20432;DHT22;10375;49.136;10.366;2022-08-30T05:51:04;16.20;99.90
20432;DHT22;10375;49.136;10.366;2022-08-30T05:53:45;17.60;99.90
20432;DHT22;10375;49.136;10.366;2022-08-30T05:56:14;19.70;99.90
20432;DHT22;10375;49.136;10.366;2022-08-30T05:58:42;21.50;99.90
20432;DHT22;10375;49.136;10.366;2022-08-30T06:01:21;22.30;99.90
20432;DHT22;10375;49.136;10.366;2022-08-30T06:03:48;21.70;99.90
20432;DHT22;10375;49.136;10.366;2022-08-30T06:06:15;20.80;99.90
20432;DHT22;10375;49.136;10.366;2022-08-30T06:08:43;20.00;99.90
20432;DHT22;10375;49.136;10.366;2022-08-30T06:11:17;19.60;99.90
20432;DHT22;10375;49.136;10.366;2022-08-30T06:13:46;20.80;99.90
20432;DHT22;10375;49.136;10.366;2022-08-30T06:16:16;22.70;99.90
20432;DHT22;10375;49.136;10.366;2022-08-30T06:18:44;24.60;99.90
20432;DHT22;10375;49.136;10.366;2022-08-30T06:21:19;24.50;98.70
20432;DHT22;10375;49.136;10.366;2022-08-30T06:23:47;23.60;99.80
20432;DHT22;10375;49.136;10.366;2022-08-30T06:26:14;24.50;99.50
20432;DHT22;10375;49.136;10.366;2022-08-30T06:28:42;25.90;96.60
20432;DHT22;10375;49.136;10.366;2022-08-30T06:31:10;25.90;94.90
20432;DHT22;10375;49.136;10.366;2022-08-30T06:33:38;25.90;94.10
20432;DHT22;10375;49.136;10.366;2022-08-30T06:36:08;26.40;93.60
20432;DHT22;10375;49.136;10.366;2022-08-30T06:38:35;27.00;92.10
20432;DHT22;10375;49.136;10.366;2022-08-30T06:41:07;27.70;90.30
20432;DHT22;10375;49.136;10.366;2022-08-30T06:43:37;26.80;90.70
20432;DHT22;10375;49.136;10.366;2022-08-30T06:46:21;25.40;92.20
20432;DHT22;10375;49.136;10.366;2022-08-30T06:48:49;24.00;94.70
20432;DHT22;10375;49.136;10.366;2022-08-30T06:51:35;23.10;96.60
20432;DHT22;10375;49.136;10.366;2022-08-30T06:54:03;23.00;96.10
20432;DHT22;10375;49.136;10.366;2022-08-30T06:56:35;22.50;97.00
20432;DHT22;10375;49.136;10.366;2022-08-30T06:59:03;21.80;98.90
20432;DHT22;10375;49.136;10.366;2022-08-30T07:01:30;21.80;99.50
20432;DHT22;10375;49.136;10.366;2022-08-30T07:03:58;21.80;99.90
20432;DHT22;10375;49.136;10.366;2022-08-30T07:06:28;22.40;99.80
20432;DHT22;10375;49.136;10.366;2022-08-30T07:08:55;22.80;99.20
20432;DHT22;10375;49.136;10.366;2022-08-30T07:11:32;24.40;98.80
20432;DHT22;10375;49.136;10.366;2022-08-30T07:14:00;27.00;94.30
20432;DHT22;10375;49.136;10.366;2022-08-30T07:16:28;28.50;90.80
20432;DHT22;10375;49.136;10.366;2022-08-30T07:18:56;29.40;87.30
20432;DHT22;10375;49.136;10.366;2022-08-30T07:21:27;29.40;85.30
20432;DHT22;10375;49.136;10.366;2022-08-30T07:23:56;29.30;84.50
20432;DHT22;10375;49.136;10.366;2022-08-30T07:26:36;30.20;80.60
20432;DHT22;10375;49.136;10.366;2022-08-30T07:29:04;31.10;77.10
20432;DHT22;10375;49.136;10.366;2022-08-30T07:31:31;31.50;76.50
20432;DHT22;10375;49.136;10.366;2022-08-30T07:34:01;31.80;73.60
20432;DHT22;10375;49.136;10.366;2022-08-30T07:36:28;31.80;74.00
20432;DHT22;10375;49.136;10.366;2022-08-30T07:38:55;32.20;70.70
20432;DHT22;10375;49.136;10.366;2022-08-30T07:41:31;31.90;70.70
20432;DHT22;10375;49.136;10.366;2022-08-30T07:44:01;32.20;70.60
20432;DHT22;10375;49.136;10.366;2022-08-30T07:46:28;32.00;67.40
20432;DHT22;10375;49.136;10.366;2022-08-30T07:48:58;31.50;71.70
20432;DHT22;10375;49.136;10.366;2022-08-30T07:51:27;31.30;67.80
20432;DHT22;10375;49.136;10.366;2022-08-30T07:53:55;30.90;68.30
20432;DHT22;10375;49.136;10.366;2022-08-30T07:56:26;30.60;67.50
20432;DHT22;10375;49.136;10.366;2022-08-30T07:58:53;30.20;72.20
20432;DHT22;10375;49.136;10.366;2022-08-30T08:01:22;30.10;69.80
20432;DHT22;10375;49.136;10.366;2022-08-30T08:03:50;30.10;68.60
20432;DHT22;10375;49.136;10.366;2022-08-30T08:06:19;29.70;69.80
20432;DHT22;10375;49.136;10.366;2022-08-30T08:08:46;29.40;69.80
20432;DHT22;10375;49.136;10.366;2022-08-30T08:13:44;28.60;73.70
20432;DHT22;10375;49.136;10.366;2022-08-30T08:16:21;28.40;76.70
20432;DHT22;10375;49.136;10.366;2022-08-30T08:18:48;28.60;77.70
20432;DHT22;10375;49.136;10.366;2022-08-30T08:21:15;28.40;76.30
20432;DHT22;10375;49.136;10.366;2022-08-30T08:23:44;28.30;76.90
20432;DHT22;10375;49.136;10.366;2022-08-30T08:26:11;28.40;78.50
20432;DHT22;10375;49.136;10.366;2022-08-30T08:28:39;28.70;77.00
20432;DHT22;10375;49.136;10.366;2022-08-30T08:31:21;28.90;74.20
20432;DHT22;10375;49.136;10.366;2022-08-30T08:34:00;28.80;76.50
20432;DHT22;10375;49.136;10.366;2022-08-30T08:36:30;28.90;74.10
20432;DHT22;10375;49.136;10.366;2022-08-30T08:38:57;28.60;73.70
20432;DHT22;10375;49.136;10.366;2022-08-30T08:43:58;28.80;74.50
20432;DHT22;10375;49.136;10.366;2022-08-30T08:46:36;29.00;74.80
20432;DHT22;10375;49.136;10.366;2022-08-30T08:49:11;29.30;72.00
20432;DHT22;10375;49.136;10.366;2022-08-30T08:51:39;29.30;73.60
20432;DHT22;10375;49.136;10.366;2022-08-30T08:54:32;29.60;72.50
20432;DHT22;10375;49.136;10.366;2022-08-30T08:57:02;29.70;71.80
20432;DHT22;10375;49.136;10.366;2022-08-30T08:59:29;30.00;72.90
20432;DHT22;10375;49.136;10.366;2022-08-30T09:02:01;30.20;71.50
20432;DHT22;10375;49.136;10.366;2022-08-30T09:04:37;30.30;70.60
20432;DHT22;10375;49.136;10.366;2022-08-30T09:07:17;30.10;69.40
20432;DHT22;10375;49.136;10.366;2022-08-30T09:09:45;29.80;72.90
20432;DHT22;10375;49.136;10.366;2022-08-30T09:12:13;29.60;69.30
20432;DHT22;10375;49.136;10.366;2022-08-30T09:14:46;29.50;68.20
20432;DHT22;10375;49.136;10.366;2022-08-30T09:17:15;29.00;70.60
20432;DHT22;10375;49.136;10.366;2022-08-30T09:19:57;28.40;66.00
20432;DHT22;10375;49.136;10.366;2022-08-30T09:22:32;28.00;67.20
20432;DHT22;10375;49.136;10.366;2022-08-30T09:27:48;27.40;68.00
20432;DHT22;10375;49.136;10.366;2022-08-30T09:30:27;27.60;68.00
20432;DHT22;10375;49.136;10.366;2022-08-30T09:32:57;28.10;67.00
20432;DHT22;10375;49.136;10.366;2022-08-30T09:35:38;28.50;62.30
20432;DHT22;10375;49.136;10.366;2022-08-30T09:38:09;28.30;64.50
20432;DHT22;10375;49.136;10.366;2022-08-30T09:43:23;29.00;63.20
20432;DHT22;10375;49.136;10.366;2022-08-30T09:48:31;28.90;63.70
20432;DHT22;10375;49.136;10.366;2022-08-30T09:51:10;28.70;67.00
20432;DHT22;10375;49.136;10.366;2022-08-30T09:57:06;28.70;65.40
20432;DHT22;10375;49.136;10.366;2022-08-30T09:59:40;28.60;65.90
20432;DHT22;10375;49.136;10.366;2022-08-30T10:04:59;28.80;62.50
20432;DHT22;10375;49.136;10.366;2022-08-30T10:07:45;29.20;62.60
20432;DHT22;10375;49.136;10.366;2022-08-30T10:10:35;29.40;62.10
20432;DHT22;10375;49.136;10.366;2022-08-30T10:16:10;28.90;63.40
20432;DHT22;10375;49.136;10.366;2022-08-30T10:22:10;29.40;62.60
20432;DHT22;10375;49.136;10.366;2022-08-30T10:24:44;29.40;60.30
20432;DHT22;10375;49.136;10.366;2022-08-30T10:29:52;29.60;61.40
20432;DHT22;10375;49.136;10.366;2022-08-30T10:35:20;29.30;58.70
20432;DHT22;10375;49.136;10.366;2022-08-30T10:44:25;29.00;59.30
20432;DHT22;10375;49.136;10.366;2022-08-30T10:47:07;28.80;61.10
20432;DHT22;10375;49.136;10.366;2022-08-30T10:49:54;28.90;59.20
20432;DHT22;10375;49.136;10.366;2022-08-30T10:52:41;29.30;61.20
20432;DHT22;10375;49.136;10.366;2022-08-30T10:55:49;29.60;59.60
20432;DHT22;10375;49.136;10.366;2022-08-30T10:58:17;29.60;59.40
20432;DHT22;10375;49.136;10.366;2022-08-30T11:01:09;29.70;58.70
20432;DHT22;10375;49.136;10.366;2022-08-30T11:12:33;29.40;59.20
20432;DHT22;10375;49.136;10.366;2022-08-30T11:15:15;29.70;58.30
20432;DHT22;10375;49.136;10.366;2022-08-30T11:17:57;30.20;58.00
20432;DHT22;10375;49.136;10.366;2022-08-30T11:20:42;30.00;56.80
20432;DHT22;10375;49.136;10.366;2022-08-30T11:23:32;29.70;56.50
20432;DHT22;10375;49.136;10.366;2022-08-30T11:33:47;29.40;57.60
20432;DHT22;10375;49.136;10.366;2022-08-30T11:39:58;29.90;57.50
20432;DHT22;10375;49.136;10.366;2022-08-30T11:48:03;29.20;57.70
20432;DHT22;10375;49.136;10.366;2022-08-30T11:53:32;29.80;56.60
20432;DHT22;10375;49.136;10.366;2022-08-30T11:56:06;30.30;57.10
20432;DHT22;10375;49.136;10.366;2022-08-30T11:59:03;30.60;55.70
20432;DHT22;10375;49.136;10.366;2022-08-30T12:01:37;30.90;55.20
20432;DHT22;10375;49.136;10.366;2022-08-30T12:07:05;31.10;54.50
20432;DHT22;10375;49.136;10.366;2022-08-30T12:20:47;30.30;57.70
20432;DHT22;10375;49.136;10.366;2022-08-30T12:23:32;29.80;56.80
20432;DHT22;10375;49.136;10.366;2022-08-30T12:28:37;28.50;60.40
20432;DHT22;10375;49.136;10.366;2022-08-30T12:31:23;28.40;59.90
20432;DHT22;10375;49.136;10.366;2022-08-30T12:33:57;28.60;61.00
20432;DHT22;10375;49.136;10.366;2022-08-30T12:39:16;28.70;60.00
20432;DHT22;10375;49.136;10.366;2022-08-30T12:41:44;28.60;59.10
20432;DHT22;10375;49.136;10.366;2022-08-30T12:44:23;28.40;60.30
20432;DHT22;10375;49.136;10.366;2022-08-30T12:47:03;28.30;60.50
20432;DHT22;10375;49.136;10.366;2022-08-30T12:49:35;28.30;59.40
20432;DHT22;10375;49.136;10.366;2022-08-30T12:54:46;28.60;59.80
20432;DHT22;10375;49.136;10.366;2022-08-30T12:57:43;29.00;58.40
20432;DHT22;10375;49.136;10.366;2022-08-30T13:03:34;29.10;57.60
20432;DHT22;10375;49.136;10.366;2022-08-30T13:06:06;29.00;58.10
20432;DHT22;10375;49.136;10.366;2022-08-30T13:08:35;28.90;59.20
20432;DHT22;10375;49.136;10.366;2022-08-30T13:11:07;29.20;58.00
20432;DHT22;10375;49.136;10.366;2022-08-30T13:13:46;29.30;57.30
20432;DHT22;10375;49.136;10.366;2022-08-30T13:19:33;29.60;57.90
20432;DHT22;10375;49.136;10.366;2022-08-30T13:21:52;29.60;56.50
20432;DHT22;10375;49.136;10.366;2022-08-30T13:24:20;29.40;57.70
20432;DHT22;10375;49.136;10.366;2022-08-30T13:26:55;29.70;57.30
20432;DHT22;10375;49.136;10.366;2022-08-30T13:29:26;29.70;56.40
20432;DHT22;10375;49.136;10.366;2022-08-30T13:31:53;29.90;56.70
20432;DHT22;10375;49.136;10.366;2022-08-30T13:34:20;30.30;56.10
20432;DHT22;10375;49.136;10.366;2022-08-30T13:36:55;30.40;56.30
20432;DHT22;10375;49.136;10.366;2022-08-30T13:39:23;30.40;54.60
20432;DHT22;10375;49.136;10.366;2022-08-30T13:41:51;30.20;54.40
20432;DHT22;10375;49.136;10.366;2022-08-30T13:44:18;30.00;55.60
20432;DHT22;10375;49.136;10.366;2022-08-30T13:46:51;29.30;55.30
20432;DHT22;10375;49.136;10.366;2022-08-30T13:49:27;28.80;56.60
20432;DHT22;10375;49.136;10.366;2022-08-30T13:52:16;28.40;57.20
20432;DHT22;10375;49.136;10.366;2022-08-30T13:54:57;28.10;57.70
20432;DHT22;10375;49.136;10.366;2022-08-30T13:57:26;27.90;58.20
20432;DHT22;10375;49.136;10.366;2022-08-30T14:00:16;27.90;58.20
20432;DHT22;10375;49.136;10.366;2022-08-30T14:02:48;28.00;58.50
20432;DHT22;10375;49.136;10.366;2022-08-30T14:05:41;28.20;57.70
20432;DHT22;10375;49.136;10.366;2022-08-30T14:08:29;28.10;58.10
20432;DHT22;10375;49.136;10.366;2022-08-30T14:11:18;28.20;57.50
20432;DHT22;10375;49.136;10.366;2022-08-30T14:13:48;28.30;58.10
20432;DHT22;10375;49.136;10.366;2022-08-30T14:16:40;28.40;57.70
20432;DHT22;10375;49.136;10.366;2022-08-30T14:19:08;28.50;56.80
20432;DHT22;10375;49.136;10.366;2022-08-30T14:21:36;28.70;57.70
20432;DHT22;10375;49.136;10.366;2022-08-30T14:24:04;28.60;56.60
20432;DHT22;10375;49.136;10.366;2022-08-30T14:26:39;28.70;56.10
20432;DHT22;10375;49.136;10.366;2022-08-30T14:29:08;28.60;55.80
20432;DHT22;10375;49.136;10.366;2022-08-30T14:31:39;28.30;56.90
20432;DHT22;10375;49.136;10.366;2022-08-30T14:34:08;28.30;57.10
20432;DHT22;10375;49.136;10.366;2022-08-30T14:36:39;28.20;56.20
20432;DHT22;10375;49.136;10.366;2022-08-30T14:39:10;28.40;57.10
20432;DHT22;10375;49.136;10.366;2022-08-30T14:41:46;28.50;56.70
20432;DHT22;10375;49.136;10.366;2022-08-30T14:44:15;28.70;56.40
20432;DHT22;10375;49.136;10.366;2022-08-30T14:46:42;28.80;56.00
20432;DHT22;10375;49.136;10.366;2022-08-30T14:49:11;28.80;54.70
20432;DHT22;10375;49.136;10.366;2022-08-30T14:51:39;28.80;54.60
20432;DHT22;10375;49.136;10.366;2022-08-30T14:54:07;28.70;54.90
20432;DHT22;10375;49.136;10.366;2022-08-30T14:56:36;28.50;54.70
20432;DHT22;10375;49.136;10.366;2022-08-30T14:59:04;28.30;55.80
20432;DHT22;10375;49.136;10.366;2022-08-30T15:01:33;28.20;55.60
20432;DHT22;10375;49.136;10.366;2022-08-30T15:04:04;27.80;55.90
20432;DHT22;10375;49.136;10.366;2022-08-30T15:06:34;27.50;56.60
20432;DHT22;10375;49.136;10.366;2022-08-30T15:09:04;27.30;57.30
20432;DHT22;10375;49.136;10.366;2022-08-30T15:11:32;27.30;57.50
20432;DHT22;10375;49.136;10.366;2022-08-30T15:13:59;27.40;56.80
20432;DHT22;10375;49.136;10.366;2022-08-30T15:16:32;27.20;56.20
20432;DHT22;10375;49.136;10.366;2022-08-30T15:19:01;27.20;56.40
20432;DHT22;10375;49.136;10.366;2022-08-30T15:21:31;27.30;56.40
20432;DHT22;10375;49.136;10.366;2022-08-30T15:23:59;27.20;55.50
20432;DHT22;10375;49.136;10.366;2022-08-30T15:26:28;27.30;55.80
20432;DHT22;10375;49.136;10.366;2022-08-30T15:28:55;27.40;56.00
20432;DHT22;10375;49.136;10.366;2022-08-30T15:31:25;27.40;55.90
20432;DHT22;10375;49.136;10.366;2022-08-30T15:33:54;27.20;56.90
20432;DHT22;10375;49.136;10.366;2022-08-30T15:36:23;27.30;57.00
20432;DHT22;10375;49.136;10.366;2022-08-30T15:38:52;27.40;56.20
20432;DHT22;10375;49.136;10.366;2022-08-30T15:41:23;27.60;55.80
20432;DHT22;10375;49.136;10.366;2022-08-30T15:43:50;27.80;55.10
20432;DHT22;10375;49.136;10.366;2022-08-30T15:48:50;27.60;55.80
20432;DHT22;10375;49.136;10.366;2022-08-30T15:51:18;27.60;55.00
20432;DHT22;10375;49.136;10.366;2022-08-30T15:53:45;27.60;55.30
20432;DHT22;10375;49.136;10.366;2022-08-30T15:56:14;27.70;55.10
20432;DHT22;10375;49.136;10.366;2022-08-30T15:58:43;27.70;54.90
20432;DHT22;10375;49.136;10.366;2022-08-30T16:01:11;27.40;55.40
20432;DHT22;10375;49.136;10.366;2022-08-30T16:03:40;27.40;55.60
20432;DHT22;10375;49.136;10.366;2022-08-30T16:06:19;27.50;54.90
20432;DHT22;10375;49.136;10.366;2022-08-30T16:08:47;27.40;54.40
20432;DHT22;10375;49.136;10.366;2022-08-30T16:11:17;27.10;55.00
20432;DHT22;10375;49.136;10.366;2022-08-30T16:13:44;27.10;55.00
20432;DHT22;10375;49.136;10.366;2022-08-30T16:16:16;27.10;54.90
20432;DHT22;10375;49.136;10.366;2022-08-30T16:18:45;26.80;55.30
20432;DHT22;10375;49.136;10.366;2022-08-30T16:21:28;26.60;55.20
20432;DHT22;10375;49.136;10.366;2022-08-30T16:23:58;26.50;55.30
20432;DHT22;10375;49.136;10.366;2022-08-30T16:26:27;26.40;56.00
20432;DHT22;10375;49.136;10.366;2022-08-30T16:28:55;26.40;56.50
20432;DHT22;10375;49.136;10.366;2022-08-30T16:31:23;26.30;55.80
20432;DHT22;10375;49.136;10.366;2022-08-30T16:33:52;26.20;56.50
20432;DHT22;10375;49.136;10.366;2022-08-30T16:36:21;26.20;56.40
20432;DHT22;10375;49.136;10.366;2022-08-30T16:38:49;26.30;56.10
20432;DHT22;10375;49.136;10.366;2022-08-30T16:41:22;26.20;55.60
20432;DHT22;10375;49.136;10.366;2022-08-30T16:43:50;26.20;55.70
20432;DHT22;10375;49.136;10.366;2022-08-30T16:46:20;26.10;56.80
20432;DHT22;10375;49.136;10.366;2022-08-30T16:48:55;26.10;56.00
20432;DHT22;10375;49.136;10.366;2022-08-30T16:51:24;26.20;56.00
20432;DHT22;10375;49.136;10.366;2022-08-30T16:53:57;26.10;55.90
20432;DHT22;10375;49.136;10.366;2022-08-30T16:56:26;26.00;56.60
20432;DHT22;10375;49.136;10.366;2022-08-30T16:58:54;26.10;56.10
20432;DHT22;10375;49.136;10.366;2022-08-30T17:01:32;26.00;55.70
20432;DHT22;10375;49.136;10.366;2022-08-30T17:04:02;25.80;56.10
20432;DHT22;10375;49.136;10.366;2022-08-30T17:06:29;25.70;56.50
20432;DHT22;10375;49.136;10.366;2022-08-30T17:08:57;25.60;56.40
20432;DHT22;10375;49.136;10.366;2022-08-30T17:11:25;25.50;56.90
20432;DHT22;10375;49.136;10.366;2022-08-30T17:13:52;25.40;57.30
20432;DHT22;10375;49.136;10.366;2022-08-30T17:16:20;25.40;58.00
20432;DHT22;10375;49.136;10.366;2022-08-30T17:18:58;25.30;57.80
20432;DHT22;10375;49.136;10.366;2022-08-30T17:21:28;25.10;57.80
20432;DHT22;10375;49.136;10.366;2022-08-30T17:23:56;25.00;58.20
20432;DHT22;10375;49.136;10.366;2022-08-30T17:26:30;24.90;58.30
20432;DHT22;10375;49.136;10.366;2022-08-30T17:28:57;24.80;58.90
20432;DHT22;10375;49.136;10.366;2022-08-30T17:31:26;24.80;59.60
20432;DHT22;10375;49.136;10.366;2022-08-30T17:33:58;24.60;59.50
20432;DHT22;10375;49.136;10.366;2022-08-30T17:36:29;24.60;60.30
20432;DHT22;10375;49.136;10.366;2022-08-30T17:38:56;24.40;59.60
20432;DHT22;10375;49.136;10.366;2022-08-30T17:41:24;24.40;61.30
20432;DHT22;10375;49.136;10.366;2022-08-30T17:43:52;24.20;60.40
20432;DHT22;10375;49.136;10.366;2022-08-30T17:46:20;24.20;61.10
20432;DHT22;10375;49.136;10.366;2022-08-30T17:48:50;24.10;62.40
20432;DHT22;10375;49.136;10.366;2022-08-30T17:51:28;24.00;62.00
20432;DHT22;10375;49.136;10.366;2022-08-30T17:53:56;23.80;63.00
20432;DHT22;10375;49.136;10.366;2022-08-30T17:56:24;23.70;63.50
20432;DHT22;10375;49.136;10.366;2022-08-30T17:59:01;23.60;63.60
20432;DHT22;10375;49.136;10.366;2022-08-30T18:01:30;23.50;65.00
20432;DHT22;10375;49.136;10.366;2022-08-30T18:03:57;23.30;65.50
20432;DHT22;10375;49.136;10.366;2022-08-30T18:06:32;23.20;65.50
20432;DHT22;10375;49.136;10.366;2022-08-30T18:09:01;23.00;66.50